sensor_id;sensor_type;location;lat;lon;timestamp;P1;durP1;ratioP1;P2;durP2;ratioP2
56455;SDS011;42354;53.218;6.564;2022-09-09T00:04:13;24.25;;;12.93;;
56455;SDS011;42354;53.218;6.564;2022-09-09T00:09:25;20.73;;;11.75;;
56455;SDS011;42354;53.218;6.564;2022-09-09T00:15:19;21.77;;;12.20;;
56455;SDS011;42354;53.218;6.564;2022-09-09T00:20:19;23.05;;;12.27;;
56455;SDS011;42354;53.218;6.564;2022-09-09T00:28:43;21.45;;;11.98;;
56455;SDS011;42354;53.218;6.564;2022-09-09T00:31:21;22.70;;;12.48;;
56455;SDS011;42354;53.218;6.564;2022-09-09T00:33:50;21.92;;;12.00;;
56455;SDS011;42354;53.218;6.564;2022-09-09T00:36:21;19.27;;;12.48;;
56455;SDS011;42354;53.218;6.564;2022-09-09T00:38:55;22.73;;;12.63;;
56455;SDS011;42354;53.218;6.564;2022-09-09T00:52:57;21.20;;;11.07;;
56455;SDS011;42354;53.218;6.564;2022-09-09T00:58:13;18.63;;;10.98;;
56455;SDS011;42354;53.218;6.564;2022-09-09T01:00:46;14.93;;;9.43;;
56455;SDS011;42354;53.218;6.564;2022-09-09T01:03:36;16.73;;;9.73;;
56455;SDS011;42354;53.218;6.564;2022-09-09T01:11:05;14.50;;;8.45;;
56455;SDS011;42354;53.218;6.564;2022-09-09T01:13:40;17.80;;;9.55;;
56455;SDS011;42354;53.218;6.564;2022-09-09T01:16:11;13.57;;;9.32;;
56455;SDS011;42354;53.218;6.564;2022-09-09T01:18:39;18.33;;;9.63;;
56455;SDS011;42354;53.218;6.564;2022-09-09T01:26:35;12.98;;;9.30;;
56455;SDS011;42354;53.218;6.564;2022-09-09T01:29:04;17.83;;;10.02;;
56455;SDS011;42354;53.218;6.564;2022-09-09T01:31:36;15.60;;;9.88;;
56455;SDS011;42354;53.218;6.564;2022-09-09T01:34:12;11.97;;;8.53;;
56455;SDS011;42354;53.218;6.564;2022-09-09T01:36:40;17.30;;;9.23;;
56455;SDS011;42354;53.218;6.564;2022-09-09T01:39:09;14.88;;;8.88;;
56455;SDS011;42354;53.218;6.564;2022-09-09T01:41:36;16.08;;;9.38;;
56455;SDS011;42354;53.218;6.564;2022-09-09T01:44:02;13.13;;;8.57;;
56455;SDS011;42354;53.218;6.564;2022-09-09T01:46:28;14.30;;;9.20;;
56455;SDS011;42354;53.218;6.564;2022-09-09T01:48:55;15.82;;;9.40;;
56455;SDS011;42354;53.218;6.564;2022-09-09T01:51:23;13.88;;;9.10;;
56455;SDS011;42354;53.218;6.564;2022-09-09T01:53:48;19.90;;;9.02;;
56455;SDS011;42354;53.218;6.564;2022-09-09T01:59:03;14.63;;;9.32;;
56455;SDS011;42354;53.218;6.564;2022-09-09T02:01:50;17.48;;;9.30;;
56455;SDS011;42354;53.218;6.564;2022-09-09T02:07:04;17.08;;;10.02;;
56455;SDS011;42354;53.218;6.564;2022-09-09T02:09:35;16.60;;;9.98;;
56455;SDS011;42354;53.218;6.564;2022-09-09T02:12:22;20.50;;;11.00;;
56455;SDS011;42354;53.218;6.564;2022-09-09T02:14:50;18.30;;;10.32;;
56455;SDS011;42354;53.218;6.564;2022-09-09T02:17:28;18.90;;;10.80;;
56455;SDS011;42354;53.218;6.564;2022-09-09T02:20:08;19.45;;;11.43;;
56455;SDS011;42354;53.218;6.564;2022-09-09T02:22:37;21.83;;;12.18;;
56455;SDS011;42354;53.218;6.564;2022-09-09T02:25:05;17.35;;;11.85;;
56455;SDS011;42354;53.218;6.564;2022-09-09T02:27:33;19.27;;;12.75;;
56455;SDS011;42354;53.218;6.564;2022-09-09T02:29:59;21.60;;;12.52;;
56455;SDS011;42354;53.218;6.564;2022-09-09T02:32:27;18.92;;;12.30;;
56455;SDS011;42354;53.218;6.564;2022-09-09T02:35:00;25.08;;;13.10;;
56455;SDS011;42354;53.218;6.564;2022-09-09T02:37:35;22.92;;;12.57;;
56455;SDS011;42354;53.218;6.564;2022-09-09T02:40:07;19.60;;;12.35;;
56455;SDS011;42354;53.218;6.564;2022-09-09T02:42:43;26.00;;;12.93;;
56455;SDS011;42354;53.218;6.564;2022-09-09T02:45:10;20.42;;;12.48;;
56455;SDS011;42354;53.218;6.564;2022-09-09T02:56:40;20.90;;;12.63;;
56455;SDS011;42354;53.218;6.564;2022-09-09T02:59:08;17.95;;;11.73;;
56455;SDS011;42354;53.218;6.564;2022-09-09T03:01:34;20.98;;;11.68;;
56455;SDS011;42354;53.218;6.564;2022-09-09T03:04:01;22.65;;;12.82;;
56455;SDS011;42354;53.218;6.564;2022-09-09T03:06:27;21.92;;;12.40;;
56455;SDS011;42354;53.218;6.564;2022-09-09T03:08:53;19.83;;;12.05;;
56455;SDS011;42354;53.218;6.564;2022-09-09T03:11:18;22.08;;;11.18;;
56455;SDS011;42354;53.218;6.564;2022-09-09T03:13:43;20.05;;;11.80;;
56455;SDS011;42354;53.218;6.564;2022-09-09T03:16:09;20.15;;;11.15;;
56455;SDS011;42354;53.218;6.564;2022-09-09T03:18:34;19.08;;;11.07;;
56455;SDS011;42354;53.218;6.564;2022-09-09T03:21:00;23.80;;;10.98;;
56455;SDS011;42354;53.218;6.564;2022-09-09T03:23:26;19.50;;;11.27;;
56455;SDS011;42354;53.218;6.564;2022-09-09T03:25:51;19.23;;;10.38;;
56455;SDS011;42354;53.218;6.564;2022-09-09T03:28:18;21.90;;;11.40;;
56455;SDS011;42354;53.218;6.564;2022-09-09T03:30:44;19.08;;;9.80;;
56455;SDS011;42354;53.218;6.564;2022-09-09T03:33:09;18.02;;;9.80;;
56455;SDS011;42354;53.218;6.564;2022-09-09T03:35:35;24.75;;;10.65;;
56455;SDS011;42354;53.218;6.564;2022-09-09T03:38:01;13.30;;;9.00;;
56455;SDS011;42354;53.218;6.564;2022-09-09T03:40:26;15.63;;;9.55;;
56455;SDS011;42354;53.218;6.564;2022-09-09T03:42:52;16.67;;;9.43;;
56455;SDS011;42354;53.218;6.564;2022-09-09T03:45:17;17.60;;;8.80;;
56455;SDS011;42354;53.218;6.564;2022-09-09T03:47:43;15.43;;;8.02;;
56455;SDS011;42354;53.218;6.564;2022-09-09T03:50:08;13.45;;;7.55;;
56455;SDS011;42354;53.218;6.564;2022-09-09T03:52:36;14.43;;;6.50;;
56455;SDS011;42354;53.218;6.564;2022-09-09T03:55:02;10.10;;;6.68;;
56455;SDS011;42354;53.218;6.564;2022-09-09T03:57:27;11.80;;;6.07;;
56455;SDS011;42354;53.218;6.564;2022-09-09T03:59:55;9.38;;;4.75;;
56455;SDS011;42354;53.218;6.564;2022-09-09T04:02:20;10.45;;;5.40;;
56455;SDS011;42354;53.218;6.564;2022-09-09T04:04:46;9.88;;;5.60;;
56455;SDS011;42354;53.218;6.564;2022-09-09T04:07:11;10.75;;;4.43;;
56455;SDS011;42354;53.218;6.564;2022-09-09T04:09:37;9.70;;;4.90;;
56455;SDS011;42354;53.218;6.564;2022-09-09T04:12:03;9.88;;;4.00;;
56455;SDS011;42354;53.218;6.564;2022-09-09T04:14:29;12.35;;;3.75;;
56455;SDS011;42354;53.218;6.564;2022-09-09T04:16:54;10.10;;;3.83;;
56455;SDS011;42354;53.218;6.564;2022-09-09T04:19:22;7.75;;;3.75;;
56455;SDS011;42354;53.218;6.564;2022-09-09T04:21:47;9.07;;;3.60;;
56455;SDS011;42354;53.218;6.564;2022-09-09T04:24:16;9.05;;;3.17;;
56455;SDS011;42354;53.218;6.564;2022-09-09T04:26:42;9.27;;;3.45;;
56455;SDS011;42354;53.218;6.564;2022-09-09T04:29:07;6.93;;;3.90;;
56455;SDS011;42354;53.218;6.564;2022-09-09T04:31:33;7.13;;;3.80;;
56455;SDS011;42354;53.218;6.564;2022-09-09T04:33:59;10.02;;;3.13;;
56455;SDS011;42354;53.218;6.564;2022-09-09T04:36:30;11.05;;;3.25;;
56455;SDS011;42354;53.218;6.564;2022-09-09T04:38:57;6.55;;;3.40;;
56455;SDS011;42354;53.218;6.564;2022-09-09T04:41:22;10.73;;;4.03;;
56455;SDS011;42354;53.218;6.564;2022-09-09T04:43:48;13.52;;;4.10;;
56455;SDS011;42354;53.218;6.564;2022-09-09T04:46:14;10.45;;;4.30;;
56455;SDS011;42354;53.218;6.564;2022-09-09T04:48:42;8.90;;;4.20;;
56455;SDS011;42354;53.218;6.564;2022-09-09T04:51:08;10.07;;;4.53;;
56455;SDS011;42354;53.218;6.564;2022-09-09T04:53:36;10.02;;;4.80;;
56455;SDS011;42354;53.218;6.564;2022-09-09T04:56:03;9.05;;;4.78;;
56455;SDS011;42354;53.218;6.564;2022-09-09T04:58:31;9.43;;;5.32;;
56455;SDS011;42354;53.218;6.564;2022-09-09T05:01:30;10.88;;;5.55;;
56455;SDS011;42354;53.218;6.564;2022-09-09T05:03:49;10.52;;;5.65;;
56455;SDS011;42354;53.218;6.564;2022-09-09T05:06:18;11.52;;;5.35;;
56455;SDS011;42354;53.218;6.564;2022-09-09T05:08:45;9.38;;;5.35;;
56455;SDS011;42354;53.218;6.564;2022-09-09T05:11:18;14.65;;;6.80;;
56455;SDS011;42354;53.218;6.564;2022-09-09T05:13:45;13.25;;;5.85;;
56455;SDS011;42354;53.218;6.564;2022-09-09T05:16:11;12.68;;;6.03;;
56455;SDS011;42354;53.218;6.564;2022-09-09T05:18:38;14.38;;;7.45;;
56455;SDS011;42354;53.218;6.564;2022-09-09T05:21:04;13.35;;;7.30;;
56455;SDS011;42354;53.218;6.564;2022-09-09T05:23:31;12.32;;;7.15;;
56455;SDS011;42354;53.218;6.564;2022-09-09T05:25:59;12.38;;;7.07;;
56455;SDS011;42354;53.218;6.564;2022-09-09T05:28:25;15.82;;;7.93;;
56455;SDS011;42354;53.218;6.564;2022-09-09T05:30:55;15.98;;;7.82;;
56455;SDS011;42354;53.218;6.564;2022-09-09T05:33:25;14.27;;;8.35;;
56455;SDS011;42354;53.218;6.564;2022-09-09T05:35:58;16.10;;;9.20;;
56455;SDS011;42354;53.218;6.564;2022-09-09T05:38:29;15.93;;;9.10;;
56455;SDS011;42354;53.218;6.564;2022-09-09T05:40:55;12.80;;;8.57;;
56455;SDS011;42354;53.218;6.564;2022-09-09T05:43:22;15.75;;;9.48;;
56455;SDS011;42354;53.218;6.564;2022-09-09T05:45:48;14.35;;;9.57;;
56455;SDS011;42354;53.218;6.564;2022-09-09T05:48:27;14.98;;;9.68;;
56455;SDS011;42354;53.218;6.564;2022-09-09T05:50:53;18.70;;;9.95;;
56455;SDS011;42354;53.218;6.564;2022-09-09T05:53:19;18.75;;;10.57;;
56455;SDS011;42354;53.218;6.564;2022-09-09T05:55:45;18.20;;;9.50;;
56455;SDS011;42354;53.218;6.564;2022-09-09T05:58:10;20.08;;;10.13;;
56455;SDS011;42354;53.218;6.564;2022-09-09T06:00:36;17.10;;;11.02;;
56455;SDS011;42354;53.218;6.564;2022-09-09T06:03:01;20.23;;;10.57;;
56455;SDS011;42354;53.218;6.564;2022-09-09T06:05:27;17.80;;;10.55;;
56455;SDS011;42354;53.218;6.564;2022-09-09T06:07:53;17.08;;;10.13;;
56455;SDS011;42354;53.218;6.564;2022-09-09T06:10:19;20.25;;;10.10;;
56455;SDS011;42354;53.218;6.564;2022-09-09T06:12:44;19.30;;;10.55;;
56455;SDS011;42354;53.218;6.564;2022-09-09T06:15:09;21.38;;;11.27;;
56455;SDS011;42354;53.218;6.564;2022-09-09T06:17:35;22.33;;;11.23;;
56455;SDS011;42354;53.218;6.564;2022-09-09T06:20:00;19.73;;;10.27;;
56455;SDS011;42354;53.218;6.564;2022-09-09T06:22:25;20.80;;;11.18;;
56455;SDS011;42354;53.218;6.564;2022-09-09T06:24:51;19.17;;;11.30;;
56455;SDS011;42354;53.218;6.564;2022-09-09T06:27:16;17.02;;;9.85;;
56455;SDS011;42354;53.218;6.564;2022-09-09T06:29:42;20.00;;;10.20;;
56455;SDS011;42354;53.218;6.564;2022-09-09T06:32:07;15.93;;;9.80;;
56455;SDS011;42354;53.218;6.564;2022-09-09T06:34:33;14.43;;;9.15;;
56455;SDS011;42354;53.218;6.564;2022-09-09T06:36:59;17.80;;;9.60;;
56455;SDS011;42354;53.218;6.564;2022-09-09T06:39:24;15.05;;;10.15;;
56455;SDS011;42354;53.218;6.564;2022-09-09T06:41:50;12.68;;;9.23;;
56455;SDS011;42354;53.218;6.564;2022-09-09T06:44:18;12.25;;;8.35;;
56455;SDS011;42354;53.218;6.564;2022-09-09T06:46:44;13.43;;;8.90;;
56455;SDS011;42354;53.218;6.564;2022-09-09T06:49:12;18.25;;;10.95;;
56455;SDS011;42354;53.218;6.564;2022-09-09T06:51:38;14.75;;;8.05;;
56455;SDS011;42354;53.218;6.564;2022-09-09T06:54:08;15.73;;;9.02;;
56455;SDS011;42354;53.218;6.564;2022-09-09T06:56:38;12.82;;;8.27;;
56455;SDS011;42354;53.218;6.564;2022-09-09T06:59:08;16.65;;;8.60;;
56455;SDS011;42354;53.218;6.564;2022-09-09T07:01:35;15.32;;;8.43;;
56455;SDS011;42354;53.218;6.564;2022-09-09T07:04:03;11.50;;;8.43;;
56455;SDS011;42354;53.218;6.564;2022-09-09T07:06:33;12.45;;;8.48;;
56455;SDS011;42354;53.218;6.564;2022-09-09T07:09:04;12.13;;;8.15;;
56455;SDS011;42354;53.218;6.564;2022-09-09T07:11:33;15.85;;;7.75;;
56455;SDS011;42354;53.218;6.564;2022-09-09T07:14:03;20.92;;;8.05;;
56455;SDS011;42354;53.218;6.564;2022-09-09T07:16:28;10.50;;;8.23;;
56455;SDS011;42354;53.218;6.564;2022-09-09T07:18:56;15.02;;;8.45;;
56455;SDS011;42354;53.218;6.564;2022-09-09T07:21:22;12.38;;;7.07;;
56455;SDS011;42354;53.218;6.564;2022-09-09T07:23:49;12.35;;;6.63;;
56455;SDS011;42354;53.218;6.564;2022-09-09T07:26:18;14.40;;;7.72;;
56455;SDS011;42354;53.218;6.564;2022-09-09T07:28:45;12.40;;;7.30;;
56455;SDS011;42354;53.218;6.564;2022-09-09T07:31:21;12.88;;;7.50;;
56455;SDS011;42354;53.218;6.564;2022-09-09T07:33:51;14.02;;;8.50;;
56455;SDS011;42354;53.218;6.564;2022-09-09T07:36:28;16.67;;;7.38;;
56455;SDS011;42354;53.218;6.564;2022-09-09T07:38:55;11.98;;;6.80;;
56455;SDS011;42354;53.218;6.564;2022-09-09T07:41:27;14.18;;;7.38;;
56455;SDS011;42354;53.218;6.564;2022-09-09T07:43:54;10.38;;;6.90;;
56455;SDS011;42354;53.218;6.564;2022-09-09T07:46:21;11.13;;;6.28;;
56455;SDS011;42354;53.218;6.564;2022-09-09T07:48:49;12.15;;;6.97;;
56455;SDS011;42354;53.218;6.564;2022-09-09T07:51:17;11.65;;;6.70;;
56455;SDS011;42354;53.218;6.564;2022-09-09T07:54:05;11.35;;;6.72;;
56455;SDS011;42354;53.218;6.564;2022-09-09T07:56:32;10.55;;;6.32;;
56455;SDS011;42354;53.218;6.564;2022-09-09T07:58:58;11.32;;;6.72;;
56455;SDS011;42354;53.218;6.564;2022-09-09T08:01:29;10.77;;;6.47;;
56455;SDS011;42354;53.218;6.564;2022-09-09T08:03:57;13.85;;;5.75;;
56455;SDS011;42354;53.218;6.564;2022-09-09T08:06:28;12.90;;;6.15;;
56455;SDS011;42354;53.218;6.564;2022-09-09T08:08:54;11.43;;;6.15;;
56455;SDS011;42354;53.218;6.564;2022-09-09T08:11:22;8.65;;;5.60;;
56455;SDS011;42354;53.218;6.564;2022-09-09T08:13:49;11.30;;;5.55;;
56455;SDS011;42354;53.218;6.564;2022-09-09T08:16:16;8.55;;;5.47;;
56455;SDS011;42354;53.218;6.564;2022-09-09T08:18:44;8.15;;;5.35;;
56455;SDS011;42354;53.218;6.564;2022-09-09T08:21:13;10.70;;;5.30;;
56455;SDS011;42354;53.218;6.564;2022-09-09T08:23:42;10.10;;;5.28;;
56455;SDS011;42354;53.218;6.564;2022-09-09T08:26:10;9.18;;;5.45;;
56455;SDS011;42354;53.218;6.564;2022-09-09T08:28:36;9.45;;;5.22;;
56455;SDS011;42354;53.218;6.564;2022-09-09T08:31:07;14.45;;;5.30;;
56455;SDS011;42354;53.218;6.564;2022-09-09T08:33:37;9.38;;;5.03;;
56455;SDS011;42354;53.218;6.564;2022-09-09T08:36:04;10.70;;;5.15;;
56455;SDS011;42354;53.218;6.564;2022-09-09T08:38:31;7.82;;;4.45;;
56455;SDS011;42354;53.218;6.564;2022-09-09T08:40:59;8.45;;;4.38;;
56455;SDS011;42354;53.218;6.564;2022-09-09T08:43:32;9.02;;;4.22;;
56455;SDS011;42354;53.218;6.564;2022-09-09T08:49:05;6.82;;;4.13;;
56455;SDS011;42354;53.218;6.564;2022-09-09T08:51:48;8.38;;;4.03;;
56455;SDS011;42354;53.218;6.564;2022-09-09T08:54:14;6.30;;;4.25;;
56455;SDS011;42354;53.218;6.564;2022-09-09T08:56:40;8.48;;;4.05;;
56455;SDS011;42354;53.218;6.564;2022-09-09T08:59:07;6.50;;;4.53;;
56455;SDS011;42354;53.218;6.564;2022-09-09T09:04:33;9.85;;;3.97;;
56455;SDS011;42354;53.218;6.564;2022-09-09T09:07:02;11.73;;;4.13;;
56455;SDS011;42354;53.218;6.564;2022-09-09T09:12:29;8.57;;;4.38;;
56455;SDS011;42354;53.218;6.564;2022-09-09T09:15:00;10.90;;;4.88;;
56455;SDS011;42354;53.218;6.564;2022-09-09T09:17:26;10.65;;;4.55;;
56455;SDS011;42354;53.218;6.564;2022-09-09T09:19:56;10.30;;;4.70;;
56455;SDS011;42354;53.218;6.564;2022-09-09T09:22:32;9.35;;;4.97;;
56455;SDS011;42354;53.218;6.564;2022-09-09T09:27:40;8.93;;;4.25;;
56455;SDS011;42354;53.218;6.564;2022-09-09T09:32:40;9.25;;;4.40;;
56455;SDS011;42354;53.218;6.564;2022-09-09T09:35:14;10.80;;;3.58;;
56455;SDS011;42354;53.218;6.564;2022-09-09T09:37:42;7.63;;;4.00;;
56455;SDS011;42354;53.218;6.564;2022-09-09T09:42:47;8.32;;;4.20;;
56455;SDS011;42354;53.218;6.564;2022-09-09T09:45:33;11.85;;;3.88;;
56455;SDS011;42354;53.218;6.564;2022-09-09T09:48:08;12.32;;;4.22;;
56455;SDS011;42354;53.218;6.564;2022-09-09T09:50:39;8.88;;;3.88;;
56455;SDS011;42354;53.218;6.564;2022-09-09T09:53:20;12.85;;;4.13;;
56455;SDS011;42354;53.218;6.564;2022-09-09T09:55:58;10.70;;;3.50;;
56455;SDS011;42354;53.218;6.564;2022-09-09T09:58:48;9.25;;;3.80;;
56455;SDS011;42354;53.218;6.564;2022-09-09T10:03:52;10.48;;;3.38;;
56455;SDS011;42354;53.218;6.564;2022-09-09T10:06:29;9.30;;;3.60;;
56455;SDS011;42354;53.218;6.564;2022-09-09T10:08:55;9.57;;;3.75;;
56455;SDS011;42354;53.218;6.564;2022-09-09T10:14:21;10.32;;;2.80;;
56455;SDS011;42354;53.218;6.564;2022-09-09T10:19:34;11.50;;;3.22;;
56455;SDS011;42354;53.218;6.564;2022-09-09T10:22:05;8.45;;;2.58;;
56455;SDS011;42354;53.218;6.564;2022-09-09T10:33:10;9.57;;;3.15;;
56455;SDS011;42354;53.218;6.564;2022-09-09T10:36:19;8.48;;;2.60;;
56455;SDS011;42354;53.218;6.564;2022-09-09T10:38:52;10.00;;;2.40;;
56455;SDS011;42354;53.218;6.564;2022-09-09T10:41:48;8.45;;;2.17;;
56455;SDS011;42354;53.218;6.564;2022-09-09T10:47:14;7.68;;;1.95;;
56455;SDS011;42354;53.218;6.564;2022-09-09T10:58:00;11.27;;;2.38;;
56455;SDS011;42354;53.218;6.564;2022-09-09T11:00:25;8.90;;;1.75;;
56455;SDS011;42354;53.218;6.564;2022-09-09T11:03:01;8.20;;;1.80;;
56455;SDS011;42354;53.218;6.564;2022-09-09T11:08:29;9.48;;;2.42;;
56455;SDS011;42354;53.218;6.564;2022-09-09T11:16:30;5.82;;;1.33;;
56455;SDS011;42354;53.218;6.564;2022-09-09T11:21:45;4.63;;;1.40;;
56455;SDS011;42354;53.218;6.564;2022-09-09T11:24:15;4.35;;;1.20;;
56455;SDS011;42354;53.218;6.564;2022-09-09T11:27:10;7.35;;;1.58;;
56455;SDS011;42354;53.218;6.564;2022-09-09T11:32:33;7.45;;;1.30;;
56455;SDS011;42354;53.218;6.564;2022-09-09T11:38:34;6.25;;;1.50;;
56455;SDS011;42354;53.218;6.564;2022-09-09T11:41:12;8.60;;;1.88;;
56455;SDS011;42354;53.218;6.564;2022-09-09T11:46:05;4.68;;;1.67;;
56455;SDS011;42354;53.218;6.564;2022-09-09T11:48:34;5.55;;;1.58;;
56455;SDS011;42354;53.218;6.564;2022-09-09T11:51:26;5.25;;;1.30;;
56455;SDS011;42354;53.218;6.564;2022-09-09T11:53:55;9.73;;;1.60;;
56455;SDS011;42354;53.218;6.564;2022-09-09T12:04:54;9.82;;;1.98;;
56455;SDS011;42354;53.218;6.564;2022-09-09T12:09:39;7.03;;;1.63;;
56455;SDS011;42354;53.218;6.564;2022-09-09T12:17:15;5.03;;;1.63;;
56455;SDS011;42354;53.218;6.564;2022-09-09T12:19:59;6.28;;;1.35;;
56455;SDS011;42354;53.218;6.564;2022-09-09T12:33:17;5.68;;;1.20;;
56455;SDS011;42354;53.218;6.564;2022-09-09T12:35:47;4.80;;;1.30;;
56455;SDS011;42354;53.218;6.564;2022-09-09T12:38:27;5.20;;;1.40;;
56455;SDS011;42354;53.218;6.564;2022-09-09T12:40:57;4.78;;;1.00;;
56455;SDS011;42354;53.218;6.564;2022-09-09T12:43:24;4.88;;;1.30;;
56455;SDS011;42354;53.218;6.564;2022-09-09T12:45:51;6.00;;;1.20;;
56455;SDS011;42354;53.218;6.564;2022-09-09T12:48:44;6.63;;;1.40;;
56455;SDS011;42354;53.218;6.564;2022-09-09T12:51:28;6.35;;;1.30;;
56455;SDS011;42354;53.218;6.564;2022-09-09T12:53:55;7.75;;;1.60;;
56455;SDS011;42354;53.218;6.564;2022-09-09T12:56:31;5.22;;;1.40;;
56455;SDS011;42354;53.218;6.564;2022-09-09T12:58:58;9.80;;;1.30;;
56455;SDS011;42354;53.218;6.564;2022-09-09T13:01:27;6.25;;;1.58;;
56455;SDS011;42354;53.218;6.564;2022-09-09T13:03:55;7.20;;;1.58;;
56455;SDS011;42354;53.218;6.564;2022-09-09T13:06:22;5.13;;;1.73;;
56455;SDS011;42354;53.218;6.564;2022-09-09T13:08:50;5.75;;;1.50;;
56455;SDS011;42354;53.218;6.564;2022-09-09T13:11:18;5.53;;;1.50;;
56455;SDS011;42354;53.218;6.564;2022-09-09T13:13:52;6.45;;;2.40;;
56455;SDS011;42354;53.218;6.564;2022-09-09T13:16:30;9.63;;;1.98;;
56455;SDS011;42354;53.218;6.564;2022-09-09T13:18:58;5.90;;;1.38;;
56455;SDS011;42354;53.218;6.564;2022-09-09T13:21:32;7.95;;;1.38;;
56455;SDS011;42354;53.218;6.564;2022-09-09T13:24:02;5.07;;;1.50;;
56455;SDS011;42354;53.218;6.564;2022-09-09T13:26:31;7.57;;;1.40;;
56455;SDS011;42354;53.218;6.564;2022-09-09T13:29:07;6.38;;;1.45;;
56455;SDS011;42354;53.218;6.564;2022-09-09T13:31:42;6.40;;;1.40;;
56455;SDS011;42354;53.218;6.564;2022-09-09T13:34:25;7.50;;;1.52;;
56455;SDS011;42354;53.218;6.564;2022-09-09T13:37:16;4.07;;;1.45;;
56455;SDS011;42354;53.218;6.564;2022-09-09T13:39:51;6.80;;;1.70;;
56455;SDS011;42354;53.218;6.564;2022-09-09T13:42:25;5.28;;;1.60;;
56455;SDS011;42354;53.218;6.564;2022-09-09T13:44:52;10.18;;;1.70;;
56455;SDS011;42354;53.218;6.564;2022-09-09T13:47:21;5.95;;;1.58;;
56455;SDS011;42354;53.218;6.564;2022-09-09T13:49:54;8.90;;;1.95;;
56455;SDS011;42354;53.218;6.564;2022-09-09T13:52:19;6.20;;;2.08;;
56455;SDS011;42354;53.218;6.564;2022-09-09T13:54:48;7.82;;;1.67;;
56455;SDS011;42354;53.218;6.564;2022-09-09T13:57:18;5.88;;;1.83;;
56455;SDS011;42354;53.218;6.564;2022-09-09T13:59:46;8.05;;;1.40;;
56455;SDS011;42354;53.218;6.564;2022-09-09T14:02:12;6.53;;;1.45;;
56455;SDS011;42354;53.218;6.564;2022-09-09T14:04:39;3.63;;;1.08;;
56455;SDS011;42354;53.218;6.564;2022-09-09T14:07:06;4.07;;;0.95;;
56455;SDS011;42354;53.218;6.564;2022-09-09T14:09:40;2.28;;;0.80;;
56455;SDS011;42354;53.218;6.564;2022-09-09T14:12:12;4.00;;;1.15;;
56455;SDS011;42354;53.218;6.564;2022-09-09T14:14:42;4.75;;;1.20;;
56455;SDS011;42354;53.218;6.564;2022-09-09T14:17:09;2.88;;;1.15;;
56455;SDS011;42354;53.218;6.564;2022-09-09T14:19:35;5.68;;;1.40;;
56455;SDS011;42354;53.218;6.564;2022-09-09T14:22:02;3.30;;;1.33;;
56455;SDS011;42354;53.218;6.564;2022-09-09T14:24:27;5.78;;;1.30;;
56455;SDS011;42354;53.218;6.564;2022-09-09T14:26:53;3.92;;;0.93;;
56455;SDS011;42354;53.218;6.564;2022-09-09T14:29:19;5.35;;;1.00;;
56455;SDS011;42354;53.218;6.564;2022-09-09T14:31:45;3.85;;;1.23;;
56455;SDS011;42354;53.218;6.564;2022-09-09T14:34:11;3.40;;;0.98;;
56455;SDS011;42354;53.218;6.564;2022-09-09T14:36:41;5.45;;;1.50;;
56455;SDS011;42354;53.218;6.564;2022-09-09T14:39:06;3.40;;;1.15;;
56455;SDS011;42354;53.218;6.564;2022-09-09T14:41:32;3.63;;;1.10;;
56455;SDS011;42354;53.218;6.564;2022-09-09T14:43:58;3.58;;;1.05;;
56455;SDS011;42354;53.218;6.564;2022-09-09T14:46:24;5.60;;;1.05;;
56455;SDS011;42354;53.218;6.564;2022-09-09T14:48:50;3.42;;;1.13;;
56455;SDS011;42354;53.218;6.564;2022-09-09T14:51:17;3.58;;;1.00;;
56455;SDS011;42354;53.218;6.564;2022-09-09T14:53:44;4.60;;;0.85;;
56455;SDS011;42354;53.218;6.564;2022-09-09T14:56:16;2.35;;;0.80;;
56455;SDS011;42354;53.218;6.564;2022-09-09T14:58:44;1.42;;;0.60;;
56455;SDS011;42354;53.218;6.564;2022-09-09T15:01:11;1.42;;;0.60;;
56455;SDS011;42354;53.218;6.564;2022-09-09T15:03:38;2.90;;;0.77;;
56455;SDS011;42354;53.218;6.564;2022-09-09T15:06:09;2.97;;;1.35;;
56455;SDS011;42354;53.218;6.564;2022-09-09T15:08:40;6.45;;;1.30;;
56455;SDS011;42354;53.218;6.564;2022-09-09T15:11:07;5.78;;;1.83;;
56455;SDS011;42354;53.218;6.564;2022-09-09T15:13:33;1.52;;;1.00;;
56455;SDS011;42354;53.218;6.564;2022-09-09T15:18:38;7.55;;;1.40;;
56455;SDS011;42354;53.218;6.564;2022-09-09T15:21:10;2.60;;;0.95;;
56455;SDS011;42354;53.218;6.564;2022-09-09T15:23:40;5.53;;;1.23;;
56455;SDS011;42354;53.218;6.564;2022-09-09T15:26:06;4.35;;;1.35;;
56455;SDS011;42354;53.218;6.564;2022-09-09T15:28:32;5.28;;;1.73;;
56455;SDS011;42354;53.218;6.564;2022-09-09T15:31:07;5.22;;;1.42;;
56455;SDS011;42354;53.218;6.564;2022-09-09T15:33:39;5.78;;;1.30;;
56455;SDS011;42354;53.218;6.564;2022-09-09T15:36:16;3.10;;;1.10;;
56455;SDS011;42354;53.218;6.564;2022-09-09T15:38:43;5.22;;;1.38;;
56455;SDS011;42354;53.218;6.564;2022-09-09T15:41:09;3.80;;;1.25;;
56455;SDS011;42354;53.218;6.564;2022-09-09T15:43:34;2.55;;;1.00;;
56455;SDS011;42354;53.218;6.564;2022-09-09T15:46:02;3.80;;;1.55;;
56455;SDS011;42354;53.218;6.564;2022-09-09T15:48:49;4.40;;;1.30;;
56455;SDS011;42354;53.218;6.564;2022-09-09T15:51:16;6.05;;;1.98;;
56455;SDS011;42354;53.218;6.564;2022-09-09T15:53:41;3.55;;;1.55;;
56455;SDS011;42354;53.218;6.564;2022-09-09T15:56:07;4.45;;;1.40;;
56455;SDS011;42354;53.218;6.564;2022-09-09T15:58:35;5.07;;;1.48;;
56455;SDS011;42354;53.218;6.564;2022-09-09T16:01:04;2.25;;;1.20;;
56455;SDS011;42354;53.218;6.564;2022-09-09T16:03:36;5.40;;;1.75;;
56455;SDS011;42354;53.218;6.564;2022-09-09T16:06:02;3.30;;;1.30;;
56455;SDS011;42354;53.218;6.564;2022-09-09T16:08:36;3.15;;;1.20;;
56455;SDS011;42354;53.218;6.564;2022-09-09T16:11:07;3.80;;;1.20;;
56455;SDS011;42354;53.218;6.564;2022-09-09T16:13:37;4.20;;;1.10;;
56455;SDS011;42354;53.218;6.564;2022-09-09T16:16:04;2.00;;;1.30;;
56455;SDS011;42354;53.218;6.564;2022-09-09T16:18:41;2.40;;;0.98;;
56455;SDS011;42354;53.218;6.564;2022-09-09T16:21:12;3.75;;;1.02;;
56455;SDS011;42354;53.218;6.564;2022-09-09T16:23:40;3.40;;;1.20;;
56455;SDS011;42354;53.218;6.564;2022-09-09T16:26:05;3.55;;;1.45;;
56455;SDS011;42354;53.218;6.564;2022-09-09T16:28:30;3.75;;;1.30;;
56455;SDS011;42354;53.218;6.564;2022-09-09T16:30:56;5.80;;;2.45;;
56455;SDS011;42354;53.218;6.564;2022-09-09T16:33:23;7.47;;;1.70;;
56455;SDS011;42354;53.218;6.564;2022-09-09T16:35:48;3.50;;;1.20;;
56455;SDS011;42354;53.218;6.564;2022-09-09T16:38:15;3.58;;;1.80;;
56455;SDS011;42354;53.218;6.564;2022-09-09T16:40:40;4.82;;;1.38;;
56455;SDS011;42354;53.218;6.564;2022-09-09T16:43:06;9.98;;;4.00;;
56455;SDS011;42354;53.218;6.564;2022-09-09T16:45:32;7.10;;;3.03;;
56455;SDS011;42354;53.218;6.564;2022-09-09T16:47:58;5.47;;;1.70;;
56455;SDS011;42354;53.218;6.564;2022-09-09T16:50:25;5.47;;;2.13;;
56455;SDS011;42354;53.218;6.564;2022-09-09T16:52:52;4.95;;;1.75;;
56455;SDS011;42354;53.218;6.564;2022-09-09T16:55:18;7.65;;;1.80;;
56455;SDS011;42354;53.218;6.564;2022-09-09T16:57:45;5.35;;;1.63;;
56455;SDS011;42354;53.218;6.564;2022-09-09T17:00:16;3.38;;;1.25;;
56455;SDS011;42354;53.218;6.564;2022-09-09T17:02:42;7.63;;;2.08;;
56455;SDS011;42354;53.218;6.564;2022-09-09T17:05:08;7.65;;;3.15;;
56455;SDS011;42354;53.218;6.564;2022-09-09T17:07:34;7.95;;;2.92;;
56455;SDS011;42354;53.218;6.564;2022-09-09T17:10:00;5.35;;;2.08;;
56455;SDS011;42354;53.218;6.564;2022-09-09T17:12:26;3.28;;;1.50;;
56455;SDS011;42354;53.218;6.564;2022-09-09T17:14:51;3.58;;;1.80;;
56455;SDS011;42354;53.218;6.564;2022-09-09T17:17:16;4.15;;;1.88;;
56455;SDS011;42354;53.218;6.564;2022-09-09T17:19:42;5.40;;;1.95;;
56455;SDS011;42354;53.218;6.564;2022-09-09T17:22:07;6.60;;;2.42;;